createdAt,value
2023-01-29T00:00:47.223Z,99.99
2023-01-29T00:01:47.279Z,99.99
2023-01-29T00:02:47.032Z,99.99
2023-01-29T00:03:47.151Z,99.99
2023-01-29T00:04:47.143Z,99.99
2023-01-29T00:05:47.128Z,99.99
2023-01-29T00:06:47.062Z,99.99
2023-01-29T00:07:47.001Z,99.99
2023-01-29T00:08:47.025Z,99.99
2023-01-29T00:09:47.012Z,99.99
2023-01-29T00:10:46.988Z,99.99
2023-01-29T00:11:46.962Z,99.99
2023-01-29T00:12:46.966Z,99.99
2023-01-29T00:13:46.908Z,99.99
2023-01-29T00:14:46.893Z,99.99
2023-01-29T00:15:46.870Z,99.99
2023-01-29T00:16:46.856Z,99.99
2023-01-29T00:17:46.612Z,99.99
2023-01-29T00:18:46.816Z,99.99
2023-01-29T00:19:46.548Z,99.99
2023-01-29T00:20:46.757Z,99.99
2023-01-29T00:21:46.764Z,99.99
2023-01-29T00:22:46.456Z,99.99
2023-01-29T00:23:46.459Z,99.99
2023-01-29T00:24:46.679Z,99.99
2023-01-29T00:25:46.398Z,99.99
2023-01-29T00:26:46.632Z,99.99
2023-01-29T00:27:46.602Z,99.99
2023-01-29T00:28:46.344Z,99.99
2023-01-29T00:29:46.559Z,99.99
2023-01-29T00:30:46.295Z,99.99
2023-01-29T00:31:46.693Z,99.99
2023-01-29T00:32:46.515Z,99.99
2023-01-29T00:33:46.480Z,99.99
2023-01-29T00:34:46.473Z,99.99
2023-01-29T00:35:46.447Z,99.99
2023-01-29T00:36:46.460Z,99.99
2023-01-29T00:37:46.407Z,99.99
2023-01-29T00:38:46.376Z,99.99
2023-01-29T00:39:50.767Z,99.99
2023-01-29T00:40:46.315Z,99.99
2023-01-29T00:41:46.295Z,99.99
2023-01-29T00:42:46.016Z,99.99
2023-01-29T00:43:46.254Z,99.99
2023-01-29T00:44:45.979Z,99.99
2023-01-29T00:45:45.950Z,99.99
2023-01-29T00:46:46.044Z,99.99
2023-01-29T00:47:46.176Z,99.99
2023-01-29T00:48:46.140Z,99.99
2023-01-29T00:49:46.122Z,99.99
2023-01-29T00:50:46.103Z,99.99
2023-01-29T00:51:46.105Z,99.99
2023-01-29T00:52:46.077Z,99.99
2023-01-29T00:53:46.051Z,99.99
2023-01-29T00:54:46.020Z,99.99
2023-01-29T00:55:45.997Z,99.99
2023-01-29T00:56:45.983Z,99.99
2023-01-29T00:57:45.693Z,99.99
2023-01-29T00:58:45.937Z,99.99
2023-01-29T00:59:45.905Z,99.99
2023-01-29T01:00:46.052Z,99.99
2023-01-29T01:01:45.676Z,99.99
2023-01-29T01:02:45.593Z,99.99
2023-01-29T01:03:45.572Z,99.99
2023-01-29T01:04:45.791Z,99.99
2023-01-29T01:05:45.769Z,99.99
2023-01-29T01:06:45.777Z,99.99
2023-01-29T01:07:45.901Z,99.99
2023-01-29T01:08:45.715Z,99.99
2023-01-29T01:09:45.707Z,99.99
2023-01-29T01:10:45.661Z,99.99
2023-01-29T01:11:45.638Z,99.99
2023-01-29T01:12:45.629Z,99.99
2023-01-29T01:13:45.595Z,99.99
2023-01-29T01:14:45.648Z,99.99
2023-01-29T01:15:45.549Z,99.99
2023-01-29T01:16:45.535Z,99.99
2023-01-29T01:17:45.262Z,99.99
2023-01-29T01:18:45.493Z,99.99
2023-01-29T01:19:45.466Z,99.99
2023-01-29T01:20:45.190Z,99.99
2023-01-29T01:21:45.436Z,99.99
2023-01-29T01:22:45.146Z,99.99
2023-01-29T01:23:45.400Z,99.99
2023-01-29T01:24:45.128Z,99.99
2023-01-29T01:25:45.368Z,99.99
2023-01-29T01:26:45.316Z,99.99
2023-01-29T01:27:45.292Z,99.99
2023-01-29T01:28:45.009Z,99.99
2023-01-29T01:29:44.995Z,99.99
2023-01-29T01:30:45.341Z,99.99
2023-01-29T01:31:45.093Z,99.99
2023-01-29T01:32:45.213Z,99.99
2023-01-29T01:33:45.159Z,99.99
2023-01-29T01:34:44.878Z,99.99
2023-01-29T01:35:45.128Z,99.99
2023-01-29T01:36:45.089Z,99.99
2023-01-29T01:37:45.076Z,99.99
2023-01-29T01:38:45.043Z,99.99
2023-01-29T01:39:45.049Z,99.99
2023-01-29T01:40:45.003Z,99.99
2023-01-29T01:41:45.009Z,99.99
2023-01-29T01:42:44.702Z,99.99
2023-01-29T01:43:44.941Z,99.99
2023-01-29T01:44:44.964Z,99.99
2023-01-29T01:45:44.743Z,99.99
2023-01-29T01:46:44.868Z,99.99
2023-01-29T01:47:44.853Z,99.99
2023-01-29T01:48:44.832Z,99.99
2023-01-29T01:49:44.555Z,99.99
2023-01-29T01:50:44.802Z,99.99
2023-01-29T01:51:44.785Z,99.99
2023-01-29T01:52:44.733Z,99.99
2023-01-29T01:53:44.725Z,99.99
2023-01-29T01:54:44.440Z,99.99
2023-01-29T01:55:44.703Z,99.99
2023-01-29T01:56:44.648Z,99.99
2023-01-29T01:57:44.655Z,99.99
2023-01-29T01:58:44.604Z,99.99
2023-01-29T01:59:44.585Z,99.99
2023-01-29T02:00:44.468Z,99.99
2023-01-29T02:01:44.538Z,99.99
2023-01-29T02:02:44.519Z,99.99
2023-01-29T02:03:44.496Z,99.99
2023-01-29T02:04:44.475Z,99.99
2023-01-29T02:05:44.459Z,99.99
2023-01-29T02:06:44.429Z,99.99
2023-01-29T02:07:44.151Z,99.99
2023-01-29T02:08:44.390Z,99.99
2023-01-29T02:09:44.360Z,99.99
2023-01-29T02:10:44.114Z,99.99
2023-01-29T02:11:44.345Z,99.99
2023-01-29T02:12:44.308Z,99.99
2023-01-29T02:13:44.379Z,99.99
2023-01-29T02:14:43.996Z,99.99
2023-01-29T02:15:44.280Z,99.99
2023-01-29T02:16:43.955Z,99.99
2023-01-29T02:17:44.303Z,99.99
2023-01-29T02:18:44.179Z,99.99
2023-01-29T02:19:43.890Z,99.99
2023-01-29T02:20:44.131Z,99.99
2023-01-29T02:21:44.108Z,99.99
2023-01-29T02:22:43.828Z,99.99
2023-01-29T02:23:43.918Z,99.99
2023-01-29T02:24:44.134Z,99.99
2023-01-29T02:25:43.751Z,99.99
2023-01-29T02:26:43.994Z,99.99
2023-01-29T02:27:43.988Z,99.99
2023-01-29T02:28:43.692Z,99.99
2023-01-29T02:29:43.946Z,99.99
2023-01-29T02:30:44.105Z,99.99
2023-01-29T02:31:43.788Z,99.99
2023-01-29T02:32:43.605Z,99.99
2023-01-29T02:33:43.609Z,99.99
2023-01-29T02:34:43.811Z,99.99
2023-01-29T02:35:43.789Z,99.99
2023-01-29T02:36:43.791Z,99.99
2023-01-29T02:37:43.737Z,99.99
2023-01-29T02:38:43.728Z,99.99
2023-01-29T02:39:43.708Z,99.99
2023-01-29T02:40:43.843Z,99.99
2023-01-29T02:41:43.650Z,99.99
2023-01-29T02:42:43.381Z,99.99
2023-01-29T02:43:43.639Z,99.99
2023-01-29T02:44:43.594Z,99.99
2023-01-29T02:45:43.693Z,99.99
2023-01-29T02:46:43.556Z,99.99
2023-01-29T02:47:43.524Z,99.99
2023-01-29T02:48:43.496Z,99.99
2023-01-29T02:49:43.474Z,99.99
2023-01-29T02:50:43.457Z,99.99
2023-01-29T02:51:43.434Z,99.99
2023-01-29T02:52:43.420Z,99.99
2023-01-29T02:53:43.393Z,99.99
2023-01-29T02:54:43.370Z,99.99
2023-01-29T02:55:43.339Z,99.99
2023-01-29T02:56:43.317Z,99.99
2023-01-29T02:57:43.050Z,99.99
2023-01-29T02:58:43.280Z,99.99
2023-01-29T02:59:43.280Z,99.99
2023-01-29T03:00:43.255Z,99.99
2023-01-29T03:01:43.254Z,99.99
2023-01-29T03:02:42.931Z,99.99
2023-01-29T03:03:43.188Z,99.99
2023-01-29T03:04:43.152Z,99.99
2023-01-29T03:05:43.117Z,99.99
2023-01-29T03:06:43.112Z,99.99
2023-01-29T03:07:43.115Z,99.99
2023-01-29T03:08:43.144Z,99.99
2023-01-29T03:09:43.068Z,99.99
2023-01-29T03:10:43.033Z,99.99
2023-01-29T03:11:42.741Z,99.99
2023-01-29T03:12:42.713Z,99.99
2023-01-29T03:13:42.956Z,99.99
2023-01-29T03:14:42.919Z,99.99
2023-01-29T03:15:42.925Z,99.99
2023-01-29T03:16:43.049Z,99.99
2023-01-29T03:17:43.261Z,99.99
2023-01-29T03:18:42.577Z,99.99
2023-01-29T03:19:42.828Z,99.99
2023-01-29T03:20:42.798Z,99.99
2023-01-29T03:21:42.507Z,99.99
2023-01-29T03:22:42.490Z,99.99
2023-01-29T03:23:42.722Z,99.99
2023-01-29T03:24:42.693Z,99.99
2023-01-29T03:25:42.680Z,99.99
2023-01-29T03:26:42.648Z,99.99
2023-01-29T03:27:42.639Z,99.99
2023-01-29T03:28:42.362Z,99.99
2023-01-29T03:29:42.582Z,99.99
2023-01-29T03:30:42.313Z,99.99
2023-01-29T03:31:42.803Z,99.99
2023-01-29T03:32:42.513Z,99.99
2023-01-29T03:50:12.506Z,99.99
2023-01-29T03:51:12.508Z,99.99
2023-01-29T03:52:12.720Z,99.99
2023-01-29T03:53:12.705Z,99.99
2023-01-29T03:54:12.671Z,99.99
2023-01-29T03:55:12.656Z,99.99
2023-01-29T03:56:12.365Z,99.99
2023-01-29T03:57:12.637Z,99.99
2023-01-29T03:58:12.632Z,99.99
2023-01-29T03:59:12.560Z,99.99
2023-01-29T04:00:12.283Z,99.99
2023-01-29T04:01:12.388Z,99.99
2023-01-29T04:02:12.250Z,99.99
2023-01-29T04:03:12.469Z,99.99
2023-01-29T04:04:12.302Z,99.99
2023-01-29T04:05:12.462Z,99.99
2023-01-29T04:06:12.637Z,99.99
2023-01-29T04:07:12.384Z,99.99
2023-01-29T04:08:12.345Z,99.99
2023-01-29T04:09:12.329Z,99.99
2023-01-29T04:10:12.313Z,99.99
2023-01-29T04:11:12.289Z,99.99
2023-01-29T04:12:12.283Z,99.99
2023-01-29T04:13:12.259Z,99.99
2023-01-29T04:14:12.228Z,99.99
2023-01-29T04:15:11.943Z,99.99
2023-01-29T04:16:12.284Z,99.99
2023-01-29T04:17:12.148Z,99.99
2023-01-29T04:18:12.916Z,99.99
2023-01-29T04:19:12.873Z,99.99
2023-01-29T04:20:13.104Z,99.99
2023-01-29T04:21:12.826Z,99.99
2023-01-29T04:22:13.082Z,99.99
2023-01-29T04:23:13.036Z,99.99
2023-01-29T04:24:13.128Z,99.99
2023-01-29T04:25:12.749Z,99.99
2023-01-29T04:26:12.748Z,99.99
2023-01-29T04:27:12.947Z,99.99
2023-01-29T04:28:12.927Z,99.99
2023-01-29T04:29:12.900Z,99.99
2023-01-29T04:30:12.633Z,99.99
2023-01-29T04:31:13.257Z,99.99
2023-01-29T04:32:12.827Z,99.99
2023-01-29T04:33:12.554Z,99.99
2023-01-29T04:34:12.540Z,99.99
2023-01-29T04:35:12.775Z,99.99
2023-01-29T04:36:12.534Z,99.99
2023-01-29T04:37:12.719Z,99.99
2023-01-29T04:38:12.696Z,99.99
2023-01-29T04:39:14.070Z,99.99
2023-01-29T04:40:12.656Z,99.99
2023-01-29T04:41:12.631Z,99.99
2023-01-29T04:42:12.612Z,99.99
2023-01-29T04:43:12.379Z,99.99
2023-01-29T04:44:12.560Z,99.99
2023-01-29T04:45:12.541Z,99.99
2023-01-29T04:46:12.309Z,99.99
2023-01-29T04:47:12.565Z,99.99
2023-01-29T04:48:12.489Z,99.99
2023-01-29T04:49:12.202Z,99.99
2023-01-29T04:50:12.440Z,99.99
2023-01-29T04:51:12.404Z,99.99
2023-01-29T04:52:12.399Z,99.99
2023-01-29T04:53:12.370Z,99.99
2023-01-29T04:54:12.400Z,99.99
2023-01-29T04:55:12.316Z,99.99
2023-01-29T04:56:12.297Z,99.99
2023-01-29T04:57:12.275Z,99.99
2023-01-29T04:58:12.000Z,99.99
2023-01-29T04:59:11.974Z,99.99
2023-01-29T05:00:12.210Z,99.99
2023-01-29T05:01:11.928Z,99.99
2023-01-29T05:02:12.176Z,99.99
2023-01-29T05:03:12.177Z,99.99
2023-01-29T05:04:11.862Z,99.99
2023-01-29T05:05:12.102Z,99.99
2023-01-29T05:06:12.068Z,99.99
2023-01-29T05:07:12.049Z,99.99
2023-01-29T05:08:11.768Z,99.99
2023-01-29T05:09:12.004Z,99.99
2023-01-29T05:10:11.985Z,99.99
2023-01-29T05:11:11.967Z,99.99
2023-01-29T05:12:11.951Z,99.99
2023-01-29T05:13:11.915Z,99.99
2023-01-29T05:14:11.899Z,99.99
2023-01-29T05:15:11.886Z,99.99
2023-01-29T05:16:11.995Z,99.99
2023-01-29T05:17:11.837Z,99.99
2023-01-29T05:18:11.801Z,99.99
2023-01-29T05:19:12.313Z,99.99
2023-01-29T05:20:11.763Z,99.99
2023-01-29T05:21:11.761Z,99.99
2023-01-29T05:22:11.740Z,99.99
2023-01-29T05:23:11.739Z,99.99
2023-01-29T05:24:11.780Z,99.99
2023-01-29T05:25:11.388Z,99.99
2023-01-29T05:26:11.626Z,99.99
2023-01-29T05:27:11.599Z,99.99
2023-01-29T05:28:11.576Z,99.99
2023-01-29T05:29:11.572Z,99.99
2023-01-29T05:30:11.542Z,99.99
2023-01-29T05:31:11.863Z,99.99
2023-01-29T05:32:11.492Z,99.99
2023-01-29T05:33:11.472Z,99.99
2023-01-29T05:34:11.197Z,99.99
2023-01-29T05:35:11.167Z,99.99
2023-01-29T05:36:11.394Z,99.99
2023-01-29T05:37:11.382Z,99.99
2023-01-29T05:38:11.352Z,99.99
2023-01-29T05:39:11.329Z,99.99
2023-01-29T05:40:11.364Z,99.99
2023-01-29T05:41:11.047Z,99.99
2023-01-29T05:42:11.290Z,99.99
2023-01-29T05:43:10.981Z,99.99
2023-01-29T05:44:10.963Z,99.99
2023-01-29T05:45:10.994Z,99.99
2023-01-29T05:46:11.175Z,99.99
2023-01-29T05:47:10.888Z,99.99
2023-01-29T05:48:11.125Z,99.99
2023-01-29T05:49:11.103Z,99.99
2023-01-29T05:50:11.079Z,99.99
2023-01-29T05:51:11.052Z,99.99
2023-01-29T05:52:10.783Z,99.99
2023-01-29T05:53:11.014Z,99.99
2023-01-29T05:54:10.982Z,99.99
2023-01-29T05:55:10.963Z,99.99
2023-01-29T05:56:10.942Z,99.99
2023-01-29T05:57:10.926Z,99.99
2023-01-29T05:58:10.897Z,99.99
2023-01-29T05:59:10.875Z,99.99
2023-01-29T06:00:10.882Z,99.99
2023-01-29T06:01:10.577Z,99.99
2023-01-29T06:02:10.914Z,99.99
2023-01-29T06:03:11.034Z,99.99
2023-01-29T06:04:10.762Z,99.99
2023-01-29T06:05:10.742Z,99.99
2023-01-29T06:06:10.466Z,99.99
2023-01-29T06:07:10.714Z,99.99
2023-01-29T06:08:10.672Z,99.99
2023-01-29T06:09:10.402Z,99.99
2023-01-29T06:10:10.626Z,99.99
2023-01-29T06:11:10.613Z,99.99
2023-01-29T06:12:10.323Z,99.99
2023-01-29T06:13:10.578Z,99.99
2023-01-29T06:14:10.288Z,99.99
2023-01-29T06:15:10.258Z,99.99
2023-01-29T06:16:10.586Z,99.99
2023-01-29T06:17:10.486Z,99.99
2023-01-29T06:18:10.196Z,99.99
2023-01-29T06:19:10.423Z,99.99
2023-01-29T06:20:10.397Z,99.99
2023-01-29T06:21:10.385Z,99.99
2023-01-29T06:22:10.357Z,99.99
2023-01-29T06:23:10.332Z,99.99
2023-01-29T06:24:10.425Z,99.99
2023-01-29T06:25:10.345Z,99.99
2023-01-29T06:26:10.267Z,99.99
2023-01-29T06:27:10.253Z,99.99
2023-01-29T06:28:10.216Z,99.99
2023-01-29T06:29:09.942Z,99.99
2023-01-29T06:30:10.178Z,99.99
2023-01-29T06:31:38.159Z,99.99
2023-01-29T06:32:10.050Z,99.99
2023-01-29T06:33:10.102Z,99.99
2023-01-29T06:34:10.099Z,99.99
2023-01-29T06:35:09.824Z,99.99
2023-01-29T06:36:09.787Z,99.99
2023-01-29T06:37:10.031Z,99.99
2023-01-29T06:38:09.735Z,99.99
2023-01-29T06:39:09.979Z,99.99
2023-01-29T06:40:09.971Z,99.99
2023-01-29T06:41:09.670Z,99.99
2023-01-29T06:42:09.899Z,99.99
2023-01-29T06:43:09.872Z,99.99
2023-01-29T06:44:09.861Z,99.99
2023-01-29T06:45:09.834Z,99.99
2023-01-29T06:46:10.716Z,99.99
2023-01-29T06:47:10.694Z,99.99
2023-01-29T06:48:10.672Z,99.99
2023-01-29T06:49:10.393Z,99.99
2023-01-29T06:50:10.641Z,99.99
2023-01-29T06:51:10.621Z,99.99
2023-01-29T06:52:10.577Z,99.99
2023-01-29T06:53:10.557Z,99.99
2023-01-29T06:54:10.540Z,99.99
2023-01-29T06:55:10.509Z,99.99
2023-01-29T06:56:10.292Z,99.99
2023-01-29T06:57:10.210Z,99.99
2023-01-29T06:58:10.444Z,99.99
2023-01-29T06:59:10.439Z,99.99
2023-01-29T07:00:10.234Z,99.99
2023-01-29T07:01:10.652Z,99.99
2023-01-29T07:02:10.475Z,99.99
2023-01-29T07:03:10.080Z,99.99
2023-01-29T07:04:10.057Z,99.99
2023-01-29T07:05:10.287Z,99.99
2023-01-29T07:06:10.260Z,99.99
2023-01-29T07:07:10.236Z,99.99
2023-01-29T07:08:10.221Z,99.99
2023-01-29T07:09:10.195Z,99.99
2023-01-29T07:10:09.966Z,99.99
2023-01-29T07:11:09.892Z,99.99
2023-01-29T07:12:09.871Z,99.99
2023-01-29T07:13:10.099Z,99.99
2023-01-29T07:14:09.822Z,99.99
2023-01-29T07:15:10.064Z,99.99
2023-01-29T07:16:10.227Z,99.99
2023-01-29T07:17:10.011Z,99.99
2023-01-29T07:18:09.736Z,99.99
2023-01-29T07:19:09.965Z,99.99
2023-01-29T07:20:09.686Z,99.99
2023-01-29T07:21:09.717Z,99.99
2023-01-29T07:22:09.896Z,99.99
2023-01-29T07:23:09.882Z,99.99
2023-01-29T07:24:09.987Z,99.99
2023-01-29T07:25:09.831Z,99.99
2023-01-29T07:26:09.557Z,99.99
2023-01-29T07:27:09.789Z,99.99
2023-01-29T07:28:09.790Z,99.99
2023-01-29T07:29:09.784Z,99.99
2023-01-29T07:30:09.721Z,99.99
2023-01-29T07:31:09.657Z,99.99
2023-01-29T07:32:09.580Z,99.99
2023-01-29T07:33:09.835Z,99.99
2023-01-29T07:34:09.642Z,99.99
2023-01-29T07:35:09.357Z,99.99
2023-01-29T07:36:09.585Z,99.99
2023-01-29T07:37:09.561Z,99.99
2023-01-29T07:38:09.551Z,99.99
2023-01-29T07:39:09.518Z,99.99
2023-01-29T07:40:09.496Z,99.99
2023-01-29T07:41:09.469Z,99.99
2023-01-29T07:42:09.191Z,99.99
2023-01-29T07:43:09.438Z,99.99
2023-01-29T07:44:09.399Z,99.99
2023-01-29T07:45:09.379Z,99.99
2023-01-29T07:46:09.618Z,99.99
2023-01-29T07:47:09.337Z,99.99
2023-01-29T07:48:09.309Z,99.99
2023-01-29T07:49:09.292Z,99.99
2023-01-29T07:50:09.011Z,99.99
2023-01-29T07:51:08.984Z,99.99
2023-01-29T07:52:09.215Z,99.99
2023-01-29T07:53:09.200Z,99.99
2023-01-29T07:54:09.182Z,99.99
2023-01-29T07:55:09.152Z,99.99
2023-01-29T07:56:09.144Z,99.99
2023-01-29T07:57:09.105Z,99.99
2023-01-29T07:58:09.079Z,99.99
2023-01-29T07:59:08.811Z,99.99
2023-01-29T08:00:08.785Z,99.99
2023-01-29T08:01:09.110Z,99.99
2023-01-29T08:02:09.078Z,99.99
2023-01-29T08:03:08.981Z,99.99
2023-01-29T08:04:08.963Z,99.99
2023-01-29T08:05:08.929Z,99.99
2023-01-29T08:06:08.915Z,99.99
2023-01-29T08:07:08.878Z,99.99
2023-01-29T08:08:10.392Z,99.99
2023-01-29T08:09:08.833Z,99.99
2023-01-29T08:10:08.829Z,99.99
2023-01-29T08:11:08.540Z,99.99
2023-01-29T08:12:08.790Z,99.99
2023-01-29T08:13:08.518Z,99.99
2023-01-29T08:14:08.724Z,99.99
2023-01-29T08:15:08.695Z,99.99
2023-01-29T08:16:08.900Z,99.99
2023-01-29T08:17:08.651Z,99.99
2023-01-29T08:18:08.643Z,99.99
2023-01-29T08:19:08.619Z,99.99
2023-01-29T08:20:08.591Z,99.99
2023-01-29T08:21:08.570Z,99.99
2023-01-29T08:22:08.550Z,99.99
2023-01-29T08:23:08.287Z,99.99
2023-01-29T08:24:08.288Z,99.99
2023-01-29T08:25:23.873Z,99.99
2023-01-29T08:26:08.200Z,99.99
2023-01-29T08:27:08.178Z,99.99
2023-01-29T08:28:08.437Z,99.99
2023-01-29T08:29:08.151Z,99.99
2023-01-29T08:30:08.109Z,99.99
2023-01-29T08:31:08.427Z,99.99
2023-01-29T08:32:08.642Z,99.99
2023-01-29T08:33:09.518Z,99.99
2023-01-29T08:34:09.490Z,99.99
2023-01-29T08:35:09.725Z,99.99
2023-01-29T08:36:09.697Z,99.99
2023-01-29T08:37:09.679Z,99.99
2023-01-29T08:38:09.656Z,99.99
2023-01-29T08:39:09.622Z,99.99
2023-01-29T08:40:09.664Z,99.99
2023-01-29T08:41:09.333Z,99.99
2023-01-29T08:42:09.569Z,99.99
2023-01-29T08:43:11.795Z,99.99
2023-01-29T08:44:09.700Z,99.99
2023-01-29T08:45:09.507Z,99.99
2023-01-29T08:46:09.709Z,99.99
2023-01-29T08:47:09.449Z,99.99
2023-01-29T08:48:09.240Z,99.99
2023-01-29T08:49:09.419Z,99.99
2023-01-29T08:50:09.388Z,99.99
2023-01-29T08:51:09.146Z,99.99
2023-01-29T08:52:09.350Z,99.99
2023-01-29T08:53:09.080Z,99.99
2023-01-29T08:54:09.309Z,99.99
2023-01-29T08:55:09.277Z,99.99
2023-01-29T08:56:09.254Z,99.99
2023-01-29T08:57:09.235Z,99.99
2023-01-29T08:58:09.075Z,99.99
2023-01-29T08:59:09.191Z,99.99
2023-01-29T09:00:09.165Z,99.99
2023-01-29T09:01:09.264Z,99.99
2023-01-29T09:02:09.186Z,99.99
2023-01-29T09:03:09.102Z,99.99
2023-01-29T09:04:09.084Z,99.99
2023-01-29T09:05:09.057Z,99.99
2023-01-29T09:06:09.051Z,99.99
2023-01-29T09:07:08.759Z,99.99
2023-01-29T09:08:08.735Z,99.99
2023-01-29T09:09:08.717Z,99.99
2023-01-29T09:10:08.949Z,99.99
2023-01-29T09:11:08.672Z,99.99
2023-01-29T09:12:08.663Z,99.99
2023-01-29T09:13:08.882Z,99.99
2023-01-29T09:14:08.606Z,99.99
2023-01-29T09:15:08.846Z,99.99
2023-01-29T09:16:08.575Z,99.99
2023-01-29T09:17:08.798Z,99.99
2023-01-29T09:18:08.536Z,99.99
2023-01-29T09:19:08.754Z,99.99
2023-01-29T09:20:08.731Z,99.99
2023-01-29T09:21:08.724Z,99.99
2023-01-29T09:22:10.372Z,99.99
2023-01-29T09:23:08.690Z,99.99
2023-01-29T09:24:08.391Z,99.99
2023-01-29T09:25:08.665Z,99.99
2023-01-29T09:26:08.614Z,99.99
2023-01-29T09:27:08.725Z,99.99
2023-01-29T09:28:08.568Z,99.99
2023-01-29T09:29:08.570Z,99.99
2023-01-29T09:30:08.266Z,99.99
2023-01-29T09:31:08.809Z,99.99
2023-01-29T09:32:09.137Z,99.99
2023-01-29T09:33:08.456Z,99.99
2023-01-29T09:34:08.181Z,99.99
2023-01-29T09:35:08.412Z,99.99
2023-01-29T09:36:08.386Z,99.99
2023-01-29T09:37:08.391Z,99.99
2023-01-29T09:38:08.347Z,99.99
2023-01-29T09:39:08.326Z,99.99
2023-01-29T09:40:08.321Z,99.99
2023-01-29T09:41:08.033Z,99.99
2023-01-29T09:42:08.268Z,99.99
2023-01-29T09:43:08.240Z,99.99
2023-01-29T09:44:08.227Z,99.99
2023-01-29T09:45:08.216Z,99.99
2023-01-29T09:46:08.256Z,99.99
2023-01-29T09:47:08.167Z,99.99
2023-01-29T09:48:08.156Z,99.99
2023-01-29T09:49:08.125Z,99.99
2023-01-29T09:50:08.178Z,99.99
2023-01-29T09:51:08.070Z,99.99
2023-01-29T09:52:07.808Z,99.99
2023-01-29T09:53:08.036Z,99.99
2023-01-29T09:54:08.042Z,99.99
2023-01-29T09:55:07.769Z,99.99
2023-01-29T09:56:08.028Z,99.99
2023-01-29T09:57:07.989Z,99.99
2023-01-29T09:58:07.960Z,99.99
2023-01-29T09:59:07.941Z,99.99
2023-01-29T10:00:07.667Z,99.99
2023-01-29T10:01:08.228Z,99.99
2023-01-29T10:02:07.994Z,99.99
2023-01-29T10:04:07.923Z,99.99
2023-01-29T10:05:07.836Z,99.99
2023-01-29T10:06:07.541Z,99.99
2023-01-29T10:07:07.775Z,99.99
2023-01-29T10:08:07.498Z,99.99
2023-01-29T10:09:07.724Z,99.99
2023-01-29T10:10:07.476Z,99.99
2023-01-29T10:11:07.684Z,99.99
2023-01-29T10:12:07.675Z,99.99
2023-01-29T10:13:07.397Z,99.99
2023-01-29T10:14:07.627Z,99.99
2023-01-29T10:15:07.359Z,99.99
2023-01-29T10:16:07.589Z,99.99
2023-01-29T10:17:07.750Z,99.99
2023-01-29T10:18:07.539Z,99.99
2023-01-29T10:19:07.517Z,99.99
2023-01-29T10:20:07.252Z,99.99
2023-01-29T10:21:07.485Z,99.99
2023-01-29T10:22:07.469Z,99.99
2023-01-29T10:23:07.442Z,99.99
2023-01-29T10:24:07.477Z,99.99
2023-01-29T10:25:07.143Z,99.99
2023-01-29T10:26:07.376Z,99.99
2023-01-29T10:27:07.359Z,99.99
2023-01-29T10:28:07.075Z,99.99
2023-01-29T10:29:07.335Z,99.99
2023-01-29T10:30:07.292Z,99.99
2023-01-29T10:31:07.543Z,99.99
2023-01-29T10:32:07.811Z,99.99
2023-01-29T10:33:07.228Z,99.99
2023-01-29T10:34:07.245Z,99.99
2023-01-29T10:35:07.199Z,99.99
2023-01-29T10:36:07.167Z,99.99
2023-01-29T10:37:07.145Z,99.99
2023-01-29T10:38:07.127Z,99.99
2023-01-29T10:39:07.101Z,99.99
2023-01-29T10:40:06.827Z,99.99
2023-01-29T10:41:07.069Z,99.99
2023-01-29T10:42:07.041Z,99.99
2023-01-29T10:43:06.793Z,99.99
2023-01-29T10:44:06.744Z,99.99
2023-01-29T10:45:06.981Z,99.99
2023-01-29T10:46:06.958Z,99.99
2023-01-29T10:47:07.102Z,99.99
2023-01-29T10:48:06.939Z,99.99
2023-01-29T10:49:06.919Z,99.99
2023-01-29T10:50:06.634Z,99.99
2023-01-29T10:51:06.871Z,99.99
2023-01-29T10:52:06.585Z,99.99
2023-01-29T10:53:06.566Z,99.99
2023-01-29T10:54:06.797Z,99.99
2023-01-29T10:55:06.801Z,99.99
2023-01-29T10:56:22.922Z,99.99
2023-01-29T10:57:06.740Z,99.99
2023-01-29T10:58:06.723Z,99.99
2023-01-29T10:59:06.705Z,99.99
2023-01-29T11:00:06.680Z,99.99
2023-01-29T11:01:06.399Z,99.99
2023-01-29T11:02:06.636Z,99.99
2023-01-29T11:03:12.560Z,99.99
2023-01-29T11:04:06.625Z,99.99
2023-01-29T11:05:07.203Z,99.99
2023-01-29T11:06:06.557Z,99.99
2023-01-29T11:07:06.584Z,99.99
2023-01-29T11:08:06.521Z,99.99
2023-01-29T11:09:06.244Z,99.99
2023-01-29T11:10:06.212Z,99.99
2023-01-29T11:11:06.456Z,99.99
2023-01-29T11:12:06.429Z,99.99
2023-01-29T11:13:06.417Z,99.42
2023-01-29T11:14:06.383Z,99.52
2023-01-29T11:15:06.400Z,99.52
2023-01-29T11:16:06.350Z,99.37
2023-01-29T11:17:06.188Z,99.75
2023-01-29T11:18:06.327Z,99.99
2023-01-29T11:19:06.294Z,99.99
2023-01-29T11:20:06.261Z,99.99
2023-01-29T11:21:06.016Z,99.99
2023-01-29T11:22:06.226Z,99.99
2023-01-29T11:23:07.596Z,99.99
2023-01-29T11:24:05.953Z,99.99
2023-01-29T11:25:05.935Z,99.99
2023-01-29T11:26:05.887Z,99.89
2023-01-29T11:27:06.130Z,99.99
2023-01-29T11:28:06.104Z,99.99
2023-01-29T11:29:06.102Z,99.99
2023-01-29T11:30:06.069Z,99.99
2023-01-29T11:31:06.359Z,99.99
2023-01-29T11:32:05.770Z,99.42
2023-01-29T11:33:06.002Z,99.33
2023-01-29T11:34:05.996Z,98.38
2023-01-29T11:35:05.975Z,98.38
2023-01-29T11:36:05.940Z,98.57
2023-01-29T11:37:05.928Z,98.28
2023-01-29T11:38:05.904Z,98.1
2023-01-29T11:39:05.883Z,97.63
2023-01-29T11:40:05.871Z,97.15
2023-01-29T11:41:05.857Z,97.06
2023-01-29T11:42:05.835Z,96.11
2023-01-29T11:43:05.804Z,96.21
2023-01-29T11:44:05.784Z,97.06
2023-01-29T11:45:05.527Z,97.63
2023-01-29T11:46:06.104Z,97.72
2023-01-29T11:47:05.643Z,97.63
2023-01-29T11:48:05.706Z,97.72
2023-01-29T11:49:20.788Z,97.44
2023-01-29T11:50:05.416Z,97.44
2023-01-29T11:51:08.606Z,96.96
2023-01-29T11:52:05.374Z,96.21
2023-01-29T11:53:05.357Z,96.4
2023-01-29T11:54:05.334Z,96.96
2023-01-29T11:55:05.581Z,97.39
2023-01-29T11:56:05.545Z,97.58
2023-01-29T11:57:05.674Z,98.33
2023-01-29T11:58:05.929Z,97.67
2023-01-29T11:59:05.901Z,97.48
2023-01-29T12:00:05.883Z,98.14
2023-01-29T12:01:05.857Z,98.33
2023-01-29T12:02:05.838Z,98.71
2023-01-29T12:03:05.559Z,98.52
2023-01-29T12:04:05.604Z,98.33
2023-01-29T12:05:06.029Z,98.33
2023-01-29T12:06:05.957Z,98.33
2023-01-29T12:07:05.470Z,98.71
2023-01-29T12:08:05.453Z,98.61
2023-01-29T12:09:05.691Z,98.99
2023-01-29T12:10:05.666Z,99.46
2023-01-29T12:11:05.656Z,99.94
2023-01-29T12:12:05.369Z,99.99
2023-01-29T12:13:05.356Z,99.99
2023-01-29T12:14:05.608Z,99.99
2023-01-29T12:15:05.717Z,99.99
2023-01-29T12:16:05.654Z,99.99
2023-01-29T12:17:05.539Z,99.99
2023-01-29T12:18:05.249Z,99.99
2023-01-29T12:19:05.501Z,99.99
2023-01-29T12:20:05.463Z,99.99
2023-01-29T12:21:05.443Z,99.99
2023-01-29T12:22:06.548Z,99.99
2023-01-29T12:23:05.409Z,99.99
2023-01-29T12:24:05.378Z,99.99
2023-01-29T12:25:05.377Z,99.99
2023-01-29T12:26:05.334Z,99.99
2023-01-29T12:27:05.068Z,99.99
2023-01-29T12:28:05.826Z,99.99
2023-01-29T12:29:05.285Z,99.99
2023-01-29T12:30:05.263Z,99.99
2023-01-29T12:31:05.328Z,99.99
2023-01-29T12:32:04.961Z,99.99
2023-01-29T12:33:05.229Z,99.99
2023-01-29T12:34:05.271Z,99.99
2023-01-29T12:35:05.186Z,99.99
2023-01-29T12:36:04.889Z,99.99
2023-01-29T12:37:05.119Z,99.99
2023-01-29T12:38:05.127Z,99.99
2023-01-29T12:39:05.262Z,99.99
2023-01-29T12:40:05.045Z,99.99
2023-01-29T12:41:05.230Z,99.99
2023-01-29T12:42:05.218Z,99.99
2023-01-29T12:43:05.188Z,99.99
2023-01-29T12:44:05.159Z,99.99
2023-01-29T12:45:05.159Z,99.99
2023-01-29T12:46:05.114Z,99.99
2023-01-29T12:47:05.260Z,99.99
2023-01-29T12:48:05.077Z,99.99
2023-01-29T12:49:05.069Z,99.99
2023-01-29T12:50:05.036Z,99.99
2023-01-29T12:51:05.017Z,99.99
2023-01-29T12:52:04.989Z,99.99
2023-01-29T12:53:04.997Z,99.99
2023-01-29T12:54:04.741Z,99.99
2023-01-29T12:55:04.939Z,99.99
2023-01-29T12:56:04.915Z,99.99
2023-01-29T12:57:04.889Z,99.99
2023-01-29T12:58:04.869Z,99.99
2023-01-29T12:59:04.884Z,99.75
2023-01-29T13:00:04.837Z,98.99
2023-01-29T13:01:04.685Z,98.43
2023-01-29T13:02:04.558Z,99.27
2023-01-29T13:03:04.867Z,99.94
2023-01-29T13:04:04.521Z,99.99
2023-01-29T13:05:04.727Z,99.99
2023-01-29T13:06:04.724Z,99.99
2023-01-29T13:07:04.694Z,99.99
2023-01-29T13:08:04.419Z,99.99
2023-01-29T13:09:04.415Z,99.99
2023-01-29T13:10:04.643Z,99.99